Observation data for Northwest San Angelo on 05/28/2019      Previous  Date  Next       Current Mesonet Observations  Soil Data  Daily Summary Page  Observations in Plain Language
KASU 280500Z 13011G16KT 25/17 A2974 RMK A01 T02490168  RH  064%=      5-min Rain = 0
KASU 280505Z 13010KT 25/17 A2974 RMK A01 T02470168  RH  064%=      5-min Rain = 0
KASU 280510Z 13011G16KT 25/17 A2974 RMK A01 T02460168  RH  065%=      5-min Rain = 0
KASU 280515Z 13011KT 25/17 A2974 RMK A01 T02470168  RH  065%=      5-min Rain = 0
KASU 280520Z 13012G17KT 25/17 A2974 RMK A01 T02470168  RH  065%=      5-min Rain = 0
KASU 280525Z 14012KT 25/17 A2974 RMK A01 T02470168  RH  065%=      5-min Rain = 0
KASU 280530Z 14010KT 25/17 A2973 RMK A01 T02450168  RH  065%=      5-min Rain = 0
KASU 280535Z 13009KT 24/17 A2973 RMK A01 T02440168  RH  066%=      5-min Rain = 0
KASU 280540Z 14009G15KT 24/17 A2973 RMK A01 T02420168  RH  067%=      5-min Rain = 0
KASU 280545Z 13011G16KT 24/17 A2973 RMK A01 T02440169  RH  066%=      5-min Rain = 0
KASU 280550Z 14012KT 24/17 A2973 RMK A01 T02440169  RH  066%=      5-min Rain = 0
KASU 280555Z 14010KT 24/17 A2973 RMK A01 T02440169  RH  066%=      5-min Rain = 0
KASU 280600Z 14011G18KT 24/17 A2973 RMK A01 T02420169  RH  067%=      5-min Rain = 0
KASU 280605Z 14013KT 24/17 A2973 RMK A01 T02430170  RH  067%=      5-min Rain = 0
KASU 280610Z 14012G18KT 24/17 A2972 RMK A01 T02420171  RH  068%=      5-min Rain = 0
KASU 280615Z 14010KT 24/17 A2972 RMK A01 T02410172  RH  069%=      5-min Rain = 0
KASU 280620Z 14010KT 24/17 A2972 RMK A01 T02390172  RH  070%=      5-min Rain = 0
KASU 280625Z 14010KT 24/17 A2972 RMK A01 T02380173  RH  071%=      5-min Rain = 0
KASU 280630Z 14012G17KT 24/17 A2972 RMK A01 T02380174  RH  071%=      5-min Rain = 0
KASU 280635Z 14012KT 24/18 A2972 RMK A01 T02380175  RH  071%=      5-min Rain = 0
KASU 280640Z 14012KT 24/18 A2972 RMK A01 T02380176  RH  072%=      5-min Rain = 0
KASU 280645Z 14011KT 24/18 A2972 RMK A01 T02370177  RH  073%=      5-min Rain = 0
KASU 280650Z 14013KT 24/18 A2972 RMK A01 T02370178  RH  073%=      5-min Rain = 0
KASU 280655Z 14012G17KT 24/18 A2971 RMK A01 T02370179  RH  074%=      5-min Rain = 0
KASU 280700Z 14013G19KT 24/18 A2971 RMK A01 T02360180  RH  074%=      5-min Rain = 0
KASU 280705Z 14012KT 24/18 A2971 RMK A01 T02360180  RH  075%=      5-min Rain = 0
KASU 280710Z 13014KT 24/18 A297 RMK A01 T02360181  RH  075%=      5-min Rain = 0
KASU 280715Z 14012G17KT 24/18 A297 RMK A01 T02360181  RH  075%=      5-min Rain = 0
KASU 280720Z 14012KT 24/18 A297 RMK A01 T02360182  RH  076%=      5-min Rain = 0
KASU 280725Z 13013KT 24/18 A297 RMK A01 T02360183  RH  076%=      5-min Rain = 0
KASU 280730Z 13012G18KT 24/18 A2969 RMK A01 T02370183  RH  076%=      5-min Rain = 0
KASU 280735Z 13013G20KT 24/18 A2969 RMK A01 T02370184  RH  076%=      5-min Rain = 0
KASU 280740Z 14012KT 24/18 A2969 RMK A01 T02370184  RH  076%=      5-min Rain = 0
KASU 280745Z 14011G18KT 24/18 A2969 RMK A01 T02370184  RH  076%=      5-min Rain = 0
KASU 280750Z 15011G17KT 24/19 A2969 RMK A01 T02370185  RH  077%=      5-min Rain = 0
KASU 280755Z 15014G20KT 24/19 A2969 RMK A01 T02390185  RH  076%=      5-min Rain = 0
KASU 280800Z 15013G19KT 24/19 A2969 RMK A01 T02380185  RH  076%=      5-min Rain = 0
KASU 280805Z 15014KT 24/19 A2969 RMK A01 T02380185  RH  076%=      5-min Rain = 0
KASU 280810Z 15015G20KT 24/19 A2969 RMK A01 T02390185  RH  076%=      5-min Rain = 0
KASU 280815Z 15016G22KT 24/19 A2969 RMK A01 T02390186  RH  076%=      5-min Rain = 0
KASU 280820Z 15015G21KT 24/19 A2969 RMK A01 T02400185  RH  075%=      5-min Rain = 0
KASU 280825Z 15015G21KT 24/19 A2969 RMK A01 T02410185  RH  075%=      5-min Rain = 0
KASU 280830Z 16012KT 24/19 A2969 RMK A01 T02400185  RH  075%=      5-min Rain = 0
KASU 280835Z 16014G19KT 24/18 A2969 RMK A01 T02410184  RH  075%=      5-min Rain = 0
KASU 280840Z 16013G19KT 24/18 A2969 RMK A01 T02400184  RH  075%=      5-min Rain = 0
KASU 280845Z 16014G19KT 24/18 A2969 RMK A01 T02410184  RH  074%=      5-min Rain = 0
KASU 280850Z 17014G20KT 24/18 A2969 RMK A01 T02400183  RH  074%=      5-min Rain = 0
KASU 280855Z 17015G21KT 24/18 A2969 RMK A01 T02410183  RH  074%=      5-min Rain = 0
KASU 280900Z 17015KT 24/18 A2969 RMK A01 T02410183  RH  074%=      5-min Rain = 0
KASU 280905Z 17014G19KT 24/18 A2969 RMK A01 T02410182  RH  073%=      5-min Rain = 0
KASU 280910Z 16014G20KT 24/18 A2969 RMK A01 T02400182  RH  073%=      5-min Rain = 0
KASU 280915Z 16013G19KT 24/18 A2969 RMK A01 T02390181  RH  074%=      5-min Rain = 0
KASU 280920Z 16013G19KT 24/18 A2969 RMK A01 T02390181  RH  074%=      5-min Rain = 0
KASU 280925Z 18011G16KT 24/18 A297 RMK A01 T02380181  RH  074%=      5-min Rain = 0
KASU 280930Z 19008G13KT 24/18 A2971 RMK A01 T02390181  RH  074%=      5-min Rain = 0
KASU 280935Z 20007G13KT 24/18 A2972 RMK A01 T02390181  RH  074%=      5-min Rain = 0
KASU 280940Z 18007KT 24/18 A2972 RMK A01 T02390181  RH  073%=      5-min Rain = 0
KASU 280945Z 18005KT 24/18 A2972 RMK A01 T02390181  RH  074%=      5-min Rain = 0
KASU 280950Z 24004KT 24/18 A2973 RMK A01 T02390181  RH  074%=      5-min Rain = 0
KASU 280955Z 25002KT 24/18 A2973 RMK A01 T02390181  RH  074%=      5-min Rain = 0
KASU 281000Z 21005KT 24/18 A2973 RMK A01 T02380181  RH  074%=      5-min Rain = 0
KASU 281005Z 21005KT 24/18 A2973 RMK A01 T02390181  RH  074%=      5-min Rain = 0
KASU 281010Z 22006KT 24/18 A2973 RMK A01 T02390181  RH  073%=      5-min Rain = 0
KASU 281015Z 21006KT 24/18 A2974 RMK A01 T02390181  RH  074%=      5-min Rain = 0
KASU 281020Z 21007KT 24/18 A2974 RMK A01 T02390181  RH  074%=      5-min Rain = 0
KASU 281025Z 19009G14KT 24/18 A2974 RMK A01 T02390181  RH  074%=      5-min Rain = 0
KASU 281030Z 19008KT 24/18 A2974 RMK A01 T02380181  RH  074%=      5-min Rain = 0
KASU 281035Z 19007KT 24/18 A2974 RMK A01 T02380181  RH  074%=      5-min Rain = 0
KASU 281040Z 19007KT 24/18 A2974 RMK A01 T02380182  RH  075%=      5-min Rain = 0
KASU 281045Z 19007KT 24/18 A2974 RMK A01 T02380182  RH  075%=      5-min Rain = 0
KASU 281050Z 18008KT 24/18 A2974 RMK A01 T02370182  RH  075%=      5-min Rain = 0
KASU 281055Z 20007G12KT 24/18 A2974 RMK A01 T02370182  RH  075%=      5-min Rain = 0
KASU 281100Z 18010G15KT 24/18 A2974 RMK A01 T02370182  RH  075%=      5-min Rain = 0
KASU 281105Z 18008KT 24/18 A2974 RMK A01 T02370182  RH  075%=      5-min Rain = 0
KASU 281110Z 18008KT 24/18 A2974 RMK A01 T02360182  RH  075%=      5-min Rain = 0
KASU 281120Z 17010KT 24/18 A2974 RMK A01 T02360181  RH  075%=      5-min Rain = 0
KASU 281125Z 18011KT 24/18 A2974 RMK A01 T02360181  RH  075%=      5-min Rain = 0
KASU 281130Z 18011G16KT 24/18 A2974 RMK A01 T02370181  RH  075%=      5-min Rain = 0
KASU 281135Z 18010KT 24/18 A2974 RMK A01 T02360181  RH  075%=      5-min Rain = 0
KASU 281140Z 19008KT 24/18 A2974 RMK A01 T02360181  RH  075%=      5-min Rain = 0
KASU 281145Z 19009KT 24/18 A2974 RMK A01 T02360182  RH  076%=      5-min Rain = 0
KASU 281150Z 19009KT 24/18 A2974 RMK A01 T02350182  RH  076%=      5-min Rain = 0
KASU 281155Z 18010KT 24/18 A2974 RMK A01 T02360182  RH  076%=      5-min Rain = 0
KASU 281200Z 19009KT 24/18 A2974 RMK A01 T02360182  RH  076%=      5-min Rain = 0
KASU 281205Z 18011KT 24/18 A2974 RMK A01 T02360182  RH  075%=      5-min Rain = 0
KASU 281210Z 18012G17KT 24/18 A2974 RMK A01 T02360181  RH  075%=      5-min Rain = 0
KASU 281215Z 18012KT 24/18 A2974 RMK A01 T02360181  RH  075%=      5-min Rain = 0
KASU 281220Z 18011G17KT 24/18 A2974 RMK A01 T02360181  RH  075%=      5-min Rain = 0
KASU 281225Z 17010KT 24/18 A2974 RMK A01 T02370180  RH  074%=      5-min Rain = 0
KASU 281230Z 17008G13KT 24/18 A2974 RMK A01 T02370180  RH  074%=      5-min Rain = 0
KASU 281235Z 17008KT 24/18 A2975 RMK A01 T02370180  RH  074%=      5-min Rain = 0
KASU 281240Z 16007KT 24/18 A2975 RMK A01 T02370180  RH  074%=      5-min Rain = 0
KASU 281245Z 16005KT 24/18 A2975 RMK A01 T02370181  RH  075%=      5-min Rain = 0
KASU 281250Z 16007KT 24/18 A2975 RMK A01 T02370181  RH  075%=      5-min Rain = 0
KASU 281255Z 16007KT 24/18 A2975 RMK A01 T02370181  RH  075%=      5-min Rain = 0
KASU 281300Z 16007KT 24/18 A2974 RMK A01 T02380182  RH  075%=      5-min Rain = 0
KASU 281305Z 17009KT 24/18 A2974 RMK A01 T02400182  RH  074%=      5-min Rain = 0
KASU 281310Z 17008KT 24/18 A2975 RMK A01 T02410182  RH  074%=      5-min Rain = 0
KASU 281315Z 18009KT 24/18 A2975 RMK A01 T02420183  RH  073%=      5-min Rain = 0
KASU 281320Z 18011KT 24/18 A2975 RMK A01 T02420182  RH  073%=      5-min Rain = 0
KASU 281325Z 18009G15KT 24/18 A2976 RMK A01 T02430183  RH  073%=      5-min Rain = 0
KASU 281330Z 18010KT 24/18 A2976 RMK A01 T02420182  RH  073%=      5-min Rain = 0
KASU 281335Z 18011KT 24/18 A2976 RMK A01 T02420183  RH  073%=      5-min Rain = 0
KASU 281340Z 18012G17KT 25/18 A2976 RMK A01 T02450183  RH  072%=      5-min Rain = 0
KASU 281345Z 18012G17KT 25/18 A2976 RMK A01 T02470183  RH  071%=      5-min Rain = 0
KASU 281350Z 18011KT 25/18 A2976 RMK A01 T02490183  RH  071%=      5-min Rain = 0
KASU 281355Z 18012G17KT 25/18 A2976 RMK A01 T02500184  RH  070%=      5-min Rain = 0
KASU 281400Z 18014G20KT 25/18 A2977 RMK A01 T02510183  RH  069%=      5-min Rain = 0
KASU 281405Z 18011G16KT 25/18 A2977 RMK A01 T02530183  RH  069%=      5-min Rain = 0
KASU 281410Z 18013G18KT 25/18 A2977 RMK A01 T02520183  RH  069%=      5-min Rain = 0
KASU 281415Z 19013G18KT 25/18 A2977 RMK A01 T02520181  RH  068%=      5-min Rain = 0
KASU 281420Z 19014G21KT 25/18 A2977 RMK A01 T02540182  RH  068%=      5-min Rain = 0
KASU 281425Z 20012KT 25/18 A2977 RMK A01 T02530181  RH  068%=      5-min Rain = 0
KASU 281430Z 20011G16KT 26/18 A2978 RMK A01 T02560182  RH  067%=      5-min Rain = 0
KASU 281435Z 20011G16KT 26/18 A2978 RMK A01 T02550182  RH  067%=      5-min Rain = 0
KASU 281440Z 20012KT 26/18 A2977 RMK A01 T02570183  RH  067%=      5-min Rain = 0
KASU 281445Z 20011G16KT 26/18 A2977 RMK A01 T02610184  RH  066%=      5-min Rain = 0
KASU 281450Z 21010G15KT 26/18 A2977 RMK A01 T02620184  RH  066%=      5-min Rain = 0
KASU 281455Z 21013KT 26/18 A2977 RMK A01 T02630184  RH  065%=      5-min Rain = 0
KASU 281500Z 20012G18KT 26/18 A2977 RMK A01 T02620183  RH  065%=      5-min Rain = 0
KASU 281505Z 20013G19KT 26/18 A2977 RMK A01 T02630184  RH  065%=      5-min Rain = 0
KASU 281510Z 21013KT 26/18 A2977 RMK A01 T02600182  RH  066%=      5-min Rain = 0
KASU 281515Z 20011G17KT 26/19 A2977 RMK A01 T02630186  RH  066%=      5-min Rain = 0
KASU 281520Z 19015KT 26/19 A2977 RMK A01 T02640185  RH  065%=      5-min Rain = 0
KASU 281525Z 20012G20KT 27/19 A2977 RMK A01 T02670187  RH  065%=      5-min Rain = 0
KASU 281530Z 21013G18KT 27/18 A2977 RMK A01 T02650183  RH  064%=      5-min Rain = 0
KASU 281535Z 20011G16KT 27/19 A2977 RMK A01 T02690186  RH  064%=      5-min Rain = 0
KASU 281540Z 21011KT 27/19 A2977 RMK A01 T02720187  RH  063%=      5-min Rain = 0
KASU 281545Z 21012G17KT 27/19 A2977 RMK A01 T02720185  RH  062%=      5-min Rain = 0
KASU 281550Z 20012G17KT 27/19 A2977 RMK A01 T02730186  RH  062%=      5-min Rain = 0
KASU 281555Z 20011KT 28/19 A2976 RMK A01 T02750186  RH  061%=      5-min Rain = 0
KASU 281600Z 22011KT 28/19 A2976 RMK A01 T02780185  RH  060%=      5-min Rain = 0
KASU 281605Z 21012G17KT 28/18 A2976 RMK A01 T02770184  RH  060%=      5-min Rain = 0
KASU 281610Z 22011KT 28/18 A2976 RMK A01 T02790182  RH  058%=      5-min Rain = 0
KASU 281615Z 22011G16KT 28/18 A2976 RMK A01 T02790180  RH  058%=      5-min Rain = 0
KASU 281620Z 22012G18KT 28/18 A2976 RMK A01 T02810180  RH  057%=      5-min Rain = 0
KASU 281625Z 22012G17KT 28/18 A2976 RMK A01 T02810179  RH  057%=      5-min Rain = 0
KASU 281630Z 23011KT 28/18 A2976 RMK A01 T02840180  RH  056%=      5-min Rain = 0
KASU 281635Z 22009KT 29/18 A2976 RMK A01 T02870182  RH  056%=      5-min Rain = 0
KASU 281640Z 23012G19KT 29/18 A2976 RMK A01 T02880178  RH  054%=      5-min Rain = 0
KASU 281645Z 22011KT 29/18 A2976 RMK A01 T02880176  RH  053%=      5-min Rain = 0
KASU 281650Z 21010KT 29/18 A2976 RMK A01 T02880178  RH  054%=      5-min Rain = 0
KASU 281655Z 23011G16KT 29/16 A2976 RMK A01 T02880160  RH  048%=      5-min Rain = 0
KASU 281700Z 23011G16KT 29/16 A2975 RMK A01 T02910160  RH  047%=      5-min Rain = 0
KASU 281705Z 23011G16KT 30/17 A2975 RMK A01 T02970165  RH  047%=      5-min Rain = 0
KASU 281710Z 22012G19KT 30/16 A2975 RMK A01 T02950161  RH  046%=      5-min Rain = 0
KASU 281715Z 22012KT 30/16 A2975 RMK A01 T03000161  RH  045%=      5-min Rain = 0
KASU 281720Z 22013G19KT 30/16 A2975 RMK A01 T03000159  RH  045%=      5-min Rain = 0
KASU 281725Z 23010G16KT 30/16 A2975 RMK A01 T02980158  RH  045%=      5-min Rain = 0
KASU 281730Z 21013G18KT 30/16 A2975 RMK A01 T03010157  RH  044%=      5-min Rain = 0
KASU 281735Z 22012G17KT 30/16 A2975 RMK A01 T03030158  RH  044%=      5-min Rain = 0
KASU 281740Z 23012G19KT 31/15 A2974 RMK A01 T03050153  RH  042%=      5-min Rain = 0
KASU 281745Z 23010G15KT 31/15 A2974 RMK A01 T03070150  RH  040%=      5-min Rain = 0
KASU 281750Z 23011G16KT 31/15 A2974 RMK A01 T03060146  RH  039%=      5-min Rain = 0
KASU 281755Z 22009G15KT 31/14 A2974 RMK A01 T03090143  RH  038%=      5-min Rain = 0
KASU 281800Z 22010KT 31/14 A2974 RMK A01 T03090143  RH  038%=      5-min Rain = 0
KASU 281805Z 22010KT 31/14 A2974 RMK A01 T03120144  RH  038%=      5-min Rain = 0
KASU 281810Z 22009KT 31/14 A2974 RMK A01 T03120143  RH  037%=      5-min Rain = 0
KASU 281815Z 21010G15KT 31/14 A2974 RMK A01 T03100138  RH  037%=      5-min Rain = 0
KASU 281820Z 22010KT 31/13 A2974 RMK A01 T03110133  RH  035%=      5-min Rain = 0
KASU 281825Z 23008KT 32/14 A2974 RMK A01 T03180139  RH  035%=      5-min Rain = 0
KASU 281830Z 24010G16KT 32/14 A2974 RMK A01 T03170135  RH  034%=      5-min Rain = 0
KASU 281835Z 25010KT 32/13 A2974 RMK A01 T03160128  RH  033%=      5-min Rain = 0
KASU 281840Z 25008KT 32/12 A2974 RMK A01 T03150120  RH  031%=      5-min Rain = 0
KASU 281845Z 23008G14KT 32/12 A2974 RMK A01 T03160120  RH  031%=      5-min Rain = 0
KASU 281850Z 24010KT 32/13 A2973 RMK A01 T03170125  RH  032%=      5-min Rain = 0
KASU 281855Z 23009KT 32/12 A2973 RMK A01 T03210123  RH  031%=      5-min Rain = 0
KASU 281900Z 23009KT 32/12 A2973 RMK A01 T03210120  RH  030%=      5-min Rain = 0
KASU 281905Z 23008KT 32/12 A2972 RMK A01 T03220124  RH  031%=      5-min Rain = 0
KASU 281910Z 25009KT 32/12 A2972 RMK A01 T03220118  RH  030%=      5-min Rain = 0
KASU 281915Z 24007KT 33/11 A2972 RMK A01 T03250107  RH  027%=      5-min Rain = 0
KASU 281920Z 22007G14KT 33/11 A2972 RMK A01 T03250109  RH  028%=      5-min Rain = 0
KASU 281925Z 23008KT 32/12 A2972 RMK A01 T03240117  RH  029%=      5-min Rain = 0
KASU 281930Z 27010KT 33/11 A2972 RMK A01 T03260108  RH  027%=      5-min Rain = 0
KASU 281935Z 26008KT 33/11 A2972 RMK A01 T03270108  RH  027%=      5-min Rain = 0
KASU 281940Z 24008G15KT 33/10 A2972 RMK A01 T03260104  RH  027%=      5-min Rain = 0
KASU 281945Z 24008G13KT 33/11 A2971 RMK A01 T03290111  RH  027%=      5-min Rain = 0
KASU 281950Z 25007G12KT 33/10 A2971 RMK A01 T03320103  RH  025%=      5-min Rain = 0
KASU 281955Z 26006G11KT 33/10 A2971 RMK A01 T03300102  RH  026%=      5-min Rain = 0
KASU 282000Z 22008G14KT 33/11 A2971 RMK A01 T03330109  RH  026%=      5-min Rain = 0
KASU 282005Z 26008G13KT 33/10 A2971 RMK A01 T03330097  RH  024%=      5-min Rain = 0
KASU 282010Z 26006KT 33/10 A2971 RMK A01 T03320101  RH  025%=      5-min Rain = 0
KASU 282015Z 25007G12KT 33/10 A297 RMK A01 T03290101  RH  025%=      5-min Rain = 0
KASU 282020Z 25008KT 33/09 A297 RMK A01 T03330092  RH  024%=      5-min Rain = 0
KASU 282025Z 25006KT 33/09 A297 RMK A01 T03330094  RH  024%=      5-min Rain = 0
KASU 282030Z 24008G13KT 33/09 A297 RMK A01 T03320093  RH  024%=      5-min Rain = 0
KASU 282035Z 23008KT 33/07 A297 RMK A01 T03340070  RH  020%=      5-min Rain = 0
KASU 282040Z 23008KT 34/07 A297 RMK A01 T03350069  RH  020%=      5-min Rain = 0
KASU 282045Z 22009KT 33/09 A297 RMK A01 T03340086  RH  022%=      5-min Rain = 0
KASU 282050Z 22008KT 33/08 A297 RMK A01 T03340078  RH  021%=      5-min Rain = 0
KASU 282055Z 24009KT 34/08 A297 RMK A01 T03350075  RH  021%=      5-min Rain = 0
KASU 282100Z 24008KT 33/07 A297 RMK A01 T03320068  RH  020%=      5-min Rain = 0
KASU 282105Z 23008KT 34/07 A297 RMK A01 T03370071  RH  020%=      5-min Rain = 0
KASU 282110Z 22008KT 34/06 A297 RMK A01 T03360059  RH  018%=      5-min Rain = 0
KASU 282115Z 23007KT 34/04 A2969 RMK A01 T03380035  RH  015%=      5-min Rain = 0
KASU 282120Z 24006KT 34/04 A2969 RMK A01 T03410039  RH  015%=      5-min Rain = 0
KASU 282125Z 24007KT 34/05 A2969 RMK A01 T03410052  RH  017%=      5-min Rain = 0
KASU 282130Z 23007KT 34/05 A2969 RMK A01 T03380053  RH  017%=      5-min Rain = 0
KASU 282135Z 24008KT 34/06 A2969 RMK A01 T03370061  RH  018%=      5-min Rain = 0
KASU 282140Z 23007KT 34/06 A2969 RMK A01 T03400063  RH  018%=      5-min Rain = 0
KASU 282145Z 25007KT 34/06 A2969 RMK A01 T03380057  RH  018%=      5-min Rain = 0
KASU 282150Z 24007KT 34/06 A2969 RMK A01 T03370060  RH  018%=      5-min Rain = 0
KASU 282155Z 25008KT 34/06 A2969 RMK A01 T03380055  RH  018%=      5-min Rain = 0
KASU 282200Z 23006KT 34/06 A2969 RMK A01 T03360063  RH  019%=      5-min Rain = 0
KASU 282205Z 23007KT 34/07 A2969 RMK A01 T03370066  RH  019%=      5-min Rain = 0
KASU 282210Z 23007KT 34/05 A2969 RMK A01 T03350053  RH  018%=      5-min Rain = 0
KASU 282215Z 24007KT 34/04 A2969 RMK A01 T03370036  RH  015%=      5-min Rain = 0
KASU 282220Z 23006KT 34/04 A2968 RMK A01 T03380037  RH  015%=      5-min Rain = 0
KASU 282225Z 24008KT 34/04 A2968 RMK A01 T03380035  RH  015%=      5-min Rain = 0
KASU 282230Z 24006G11KT 34/05 A2968 RMK A01 T03370052  RH  017%=      5-min Rain = 0
KASU 282235Z 25005KT 34/05 A2968 RMK A01 T03380053  RH  017%=      5-min Rain = 0
KASU 282240Z 25006KT 34/04 A2968 RMK A01 T03380041  RH  016%=      5-min Rain = 0
KASU 282245Z 25006KT 34/04 A2968 RMK A01 T03370044  RH  016%=      5-min Rain = 0
KASU 282250Z 24006KT 34/04 A2968 RMK A01 T03370040  RH  016%=      5-min Rain = 0
KASU 282255Z 23006KT 34/04 A2968 RMK A01 T03360043  RH  016%=      5-min Rain = 0
KASU 282300Z 24006KT 34/04 A2968 RMK A01 T03360043  RH  016%=      5-min Rain = 0
KASU 282305Z 26006KT 34/05 A2967 RMK A01 T03360046  RH  017%=      5-min Rain = 0
KASU 282310Z 24006KT 34/05 A2967 RMK A01 T03370050  RH  017%=      5-min Rain = 0
KASU 282315Z 25005KT 34/04 A2967 RMK A01 T03360044  RH  016%=      5-min Rain = 0
KASU 282320Z 25004KT 34/04 A2967 RMK A01 T03370041  RH  016%=      5-min Rain = 0
KASU 282325Z 26005KT 34/04 A2967 RMK A01 T03360041  RH  016%=      5-min Rain = 0
KASU 282330Z 25005KT 34/04 A2967 RMK A01 T03360036  RH  016%=      5-min Rain = 0
KASU 282335Z 25004KT 34/04 A2967 RMK A01 T03350037  RH  016%=      5-min Rain = 0
KASU 282340Z 26004KT 34/04 A2967 RMK A01 T03350044  RH  016%=      5-min Rain = 0
KASU 282345Z 25004KT 34/05 A2967 RMK A01 T03350047  RH  017%=      5-min Rain = 0
KASU 282350Z 25004KT 33/04 A2967 RMK A01 T03310044  RH  017%=      5-min Rain = 0
KASU 282355Z 25003KT 33/06 A2967 RMK A01 T03320058  RH  019%=      5-min Rain = 0
KASU 290000Z 26002KT 33/06 A2967 RMK A01 T03330060  RH  019%=      5-min Rain = 0
KASU 290005Z 28003KT 33/05 A2967 RMK A01 T03340049  RH  017%=      5-min Rain = 0
KASU 290010Z 27002KT 34/05 A2967 RMK A01 T03350052  RH  018%=      5-min Rain = 0
KASU 290015Z 26002KT 34/06 A2967 RMK A01 T03350057  RH  018%=      5-min Rain = 0
KASU 290020Z 25002KT 33/07 A2968 RMK A01 T03340065  RH  019%=      5-min Rain = 0
KASU 290025Z 25002KT 33/07 A2968 RMK A01 T03320067  RH  020%=      5-min Rain = 0
KASU 290030Z 24001KT 33/07 A2968 RMK A01 T03300074  RH  021%=      5-min Rain = 0
KASU 290035Z 26001KT 33/08 A2968 RMK A01 T03300075  RH  021%=      5-min Rain = 0
KASU 290040Z 24001KT 33/08 A2968 RMK A01 T03310081  RH  022%=      5-min Rain = 0
KASU 290045Z 23000KT 33/08 A2968 RMK A01 T03300080  RH  022%=      5-min Rain = 0
KASU 290050Z 22001KT 33/09 A2968 RMK A01 T03300087  RH  023%=      5-min Rain = 0
KASU 290055Z 22000KT 33/14 A2968 RMK A01 T03300137  RH  033%=      5-min Rain = 0
KASU 290100Z 20001KT 32/11 A2968 RMK A01 T03210111  RH  029%=      5-min Rain = 0
KASU 290105Z 19001KT 31/13 A2968 RMK A01 T03130132  RH  035%=      5-min Rain = 0
KASU 290110Z 16002KT 31/14 A2969 RMK A01 T03050141  RH  038%=      5-min Rain = 0
KASU 290115Z 15004KT 29/15 A2969 RMK A01 T02940149  RH  043%=      5-min Rain = 0
KASU 290120Z 16005KT 28/14 A2969 RMK A01 T02830136  RH  042%=      5-min Rain = 0
KASU 290125Z 16004KT 28/14 A2969 RMK A01 T02820141  RH  044%=      5-min Rain = 0
KASU 290130Z 16005KT 28/14 A2969 RMK A01 T02790143  RH  045%=      5-min Rain = 0
KASU 290135Z 16006KT 28/15 A2969 RMK A01 T02790145  RH  046%=      5-min Rain = 0
KASU 290140Z 16005KT 28/15 A2969 RMK A01 T02770149  RH  047%=      5-min Rain = 0
KASU 290145Z 15005KT 27/15 A2969 RMK A01 T02740153  RH  050%=      5-min Rain = 0
KASU 290150Z 15004KT 27/16 A297 RMK A01 T02680157  RH  053%=      5-min Rain = 0
KASU 290155Z 15005KT 26/16 A297 RMK A01 T02640159  RH  055%=      5-min Rain = 0
KASU 290200Z 15007KT 26/16 A297 RMK A01 T02640158  RH  055%=      5-min Rain = 0
KASU 290205Z 15008KT 27/16 A2971 RMK A01 T02670162  RH  055%=      5-min Rain = 0
KASU 290210Z 15010G15KT 27/17 A2971 RMK A01 T02730170  RH  056%=      5-min Rain = 0
KASU 290215Z 15011KT 28/17 A2971 RMK A01 T02750172  RH  056%=      5-min Rain = 0
KASU 290220Z 15011G17KT 27/17 A2971 RMK A01 T02740173  RH  057%=      5-min Rain = 0
KASU 290225Z 15010KT 27/17 A2971 RMK A01 T02740172  RH  057%=      5-min Rain = 0
KASU 290230Z 15011KT 27/17 A2972 RMK A01 T02730172  RH  057%=      5-min Rain = 0
KASU 290235Z 15011KT 27/17 A2972 RMK A01 T02730171  RH  057%=      5-min Rain = 0
KASU 290240Z 14010G15KT 27/17 A2972 RMK A01 T02710172  RH  057%=      5-min Rain = 0
KASU 290245Z 15010KT 27/17 A2972 RMK A01 T02680172  RH  058%=      5-min Rain = 0
KASU 290250Z 15010G15KT 27/17 A2972 RMK A01 T02670172  RH  059%=      5-min Rain = 0
KASU 290255Z 15011KT 27/17 A2972 RMK A01 T02680171  RH  058%=      5-min Rain = 0
KASU 290300Z 15012KT 27/17 A2973 RMK A01 T02680171  RH  058%=      5-min Rain = 0
KASU 290305Z 15011KT 27/17 A2973 RMK A01 T02670171  RH  058%=      5-min Rain = 0
KASU 290310Z 16010G16KT 27/17 A2973 RMK A01 T02660171  RH  059%=      5-min Rain = 0
KASU 290315Z 15010KT 26/17 A2973 RMK A01 T02640172  RH  060%=      5-min Rain = 0
KASU 290320Z 15010KT 27/17 A2973 RMK A01 T02650172  RH  060%=      5-min Rain = 0
KASU 290325Z 15009G15KT 26/17 A2974 RMK A01 T02620173  RH  061%=      5-min Rain = 0
KASU 290330Z 15010KT 26/17 A2974 RMK A01 T02630172  RH  060%=      5-min Rain = 0
KASU 290335Z 15011KT 26/17 A2974 RMK A01 T02620172  RH  061%=      5-min Rain = 0
KASU 290340Z 15011G16KT 26/17 A2974 RMK A01 T02620172  RH  061%=      5-min Rain = 0
KASU 290345Z 15010KT 26/17 A2974 RMK A01 T02590173  RH  062%=      5-min Rain = 0
KASU 290350Z 15010G15KT 26/17 A2974 RMK A01 T02600172  RH  062%=      5-min Rain = 0
KASU 290355Z 15010KT 26/17 A2974 RMK A01 T02580172  RH  062%=      5-min Rain = 0
KASU 290400Z 15010G15KT 26/17 A2974 RMK A01 T02580172  RH  062%=      5-min Rain = 0
KASU 290405Z 16011G16KT 26/17 A2974 RMK A01 T02580172  RH  062%=      5-min Rain = 0
KASU 290410Z 16010G15KT 26/17 A2975 RMK A01 T02560172  RH  063%=      5-min Rain = 0
KASU 290415Z 16011KT 26/17 A2974 RMK A01 T02560172  RH  063%=      5-min Rain = 0
KASU 290420Z 16010G15KT 26/17 A2974 RMK A01 T02550173  RH  064%=      5-min Rain = 0
KASU 290425Z 16010KT 25/17 A2974 RMK A01 T02540173  RH  064%=      5-min Rain = 0
KASU 290430Z 16010G15KT 25/17 A2974 RMK A01 T02540172  RH  064%=      5-min Rain = 0
KASU 290435Z 16009G14KT 25/17 A2974 RMK A01 T02520172  RH  064%=      5-min Rain = 0
KASU 290440Z 15009G14KT 25/17 A2974 RMK A01 T02520172  RH  064%=      5-min Rain = 0
KASU 290445Z 15009KT 25/17 A2974 RMK A01 T02510172  RH  065%=      5-min Rain = 0
KASU 290450Z 15008KT 25/17 A2974 RMK A01 T02490172  RH  065%=      5-min Rain = 0
KASU 290455Z 15008KT 25/17 A2974 RMK A01 T02480172  RH  066%=      5-min Rain = 0

Page generated in 0.0297 seconds.